Mainsville, Pennsylvania
Current Conditions -  °F | °C
As of 12:53 PM on Thursday 23 Oct 2014 (Local Time) from KRYT Reporting Station
Broken Clouds Broken Clouds  
Wind Chill: 14°   Ceiling: 3200
Heat Index: 14°   Visibility: 10mi
Dew Point:   Wind: 8mph
Humidity: 59%   Direction: 290°WNW
Pressure: 29.89"   Gusts: 24mph
Location:  40.0414°N, 77.4967°W
Report Text: KRYT 231653Z AUTO 29007G21KT 250V350 10SM BKN032 14/06 A2989 RMK AO2 SLP121 T01390061 $
Loading
Personal Weather Stations






























Interactive Weather Map
Tropical Storm Tracking
New forecast layout! Learn more

10-Day Weather Forecast

Advertisements
Track Severe Weather on mobile